DNGO

Gombe Airport

Gombe, Nigeria
METAR DNGO 170700Z 22008KT 8000 FEW011 26/23 Q1013
Observed Flight Rules
Oct-17 @ 07:00 UTC (18 hours ago) Marginal Visual Flight Rules
Wind Visibility Clouds
220° at 8 knots 7,998 meters
  • Few at 1,100' AGL
Temperatures Readings
Current 26°C / 79°F
Dewpoint 23°C / 73°F
Humidity 84%
Altimeter 29.91" Hg
Pressure 1013 hPa
Elevation 505
METAR DNGO 170700Z 22008KT 8000 FEW011 26/23 Q1013
Observed Flight Rules
Oct-17 @ 07:00 UTC
(18 hours ago)
MVFR
Wind Visibility
220° at 8 knots 7,998 meters
Clouds
  • Few at 1,100' AGL
Temperature Dewpoint
26°C / 79°F 23°C / 73°F
Humidity Altimeter Pressure
84% 29.91" Hg 1013 hPa